createdAt,value
2022-08-03T00:00:42.995Z,4.30
2022-08-03T00:03:12.128Z,3.73
2022-08-03T00:05:41.242Z,5.33
2022-08-03T00:08:30.745Z,4.47
2022-08-03T00:11:02.390Z,4.47
2022-08-03T00:13:31.602Z,5.13
2022-08-03T00:16:00.695Z,4.93
2022-08-03T00:18:29.727Z,6.03
2022-08-03T00:20:58.694Z,4.33
2022-08-03T00:23:33.120Z,4.73
2022-08-03T00:26:18.480Z,4.63
2022-08-03T00:28:47.632Z,5.03
2022-08-03T00:31:16.957Z,4.30
2022-08-03T00:33:59.659Z,5.13
2022-08-03T00:36:32.240Z,5.13
2022-08-03T00:39:01.431Z,5.07
2022-08-03T00:41:31.818Z,4.37
2022-08-03T00:44:00.759Z,4.03
2022-08-03T00:46:29.887Z,6.40
2022-08-03T00:48:58.797Z,6.37
2022-08-03T00:51:29.035Z,4.17
2022-08-03T00:53:57.889Z,4.13
2022-08-03T00:56:27.577Z,4.33
2022-08-03T00:58:58.947Z,4.93
2022-08-03T01:01:30.702Z,4.03
2022-08-03T01:04:01.757Z,4.63
2022-08-03T01:06:38.744Z,4.50
2022-08-03T01:09:13.445Z,4.80
2022-08-03T01:11:59.769Z,4.80
2022-08-03T01:14:39.811Z,4.50
2022-08-03T01:17:15.103Z,4.77
2022-08-03T01:19:53.880Z,4.43
2022-08-03T01:22:57.143Z,4.37
2022-08-03T01:25:36.374Z,4.40
2022-08-03T01:28:26.529Z,5.07
2022-08-03T01:31:02.555Z,4.90
2022-08-03T01:33:36.607Z,4.50
2022-08-03T01:36:09.205Z,4.53
2022-08-03T01:38:44.110Z,4.33
2022-08-03T01:41:16.396Z,5.73
2022-08-03T01:43:59.008Z,5.07
2022-08-03T01:46:47.652Z,4.20
2022-08-03T01:49:18.977Z,4.77
2022-08-03T01:52:03.464Z,4.63
2022-08-03T01:54:37.336Z,4.60
2022-08-03T01:57:06.876Z,6.13
2022-08-03T01:59:37.459Z,4.60
2022-08-03T02:02:29.183Z,6.37
2022-08-03T02:05:01.379Z,8.27
2022-08-03T02:07:32.817Z,8.50
2022-08-03T02:10:03.507Z,8.93
2022-08-03T02:12:34.248Z,11.93
2022-08-03T02:15:04.069Z,8.30
2022-08-03T02:17:39.318Z,8.10
2022-08-03T02:20:11.907Z,13.40
2022-08-03T02:22:42.137Z,7.90
2022-08-03T02:25:13.377Z,8.70
2022-08-03T02:27:56.372Z,6.50
2022-08-03T02:30:30.724Z,7.77
2022-08-03T02:33:02.479Z,5.23
2022-08-03T02:35:33.979Z,6.17
2022-08-03T02:38:08.625Z,5.30
2022-08-03T02:40:39.685Z,6.17
2022-08-03T02:43:13.005Z,9.23
2022-08-03T02:45:45.923Z,6.17
2022-08-03T02:48:19.947Z,6.90
2022-08-03T02:50:51.047Z,7.70
2022-08-03T02:53:21.446Z,5.93
2022-08-03T02:55:51.951Z,4.57
2022-08-03T02:58:22.470Z,5.20
2022-08-03T03:00:53.200Z,6.03
2022-08-03T03:03:24.112Z,4.73
2022-08-03T03:05:57.416Z,4.47
2022-08-03T03:08:28.681Z,4.40
2022-08-03T03:11:00.831Z,4.07
2022-08-03T03:13:31.312Z,4.67
2022-08-03T03:16:03.622Z,4.53
2022-08-03T03:18:35.275Z,5.27
2022-08-03T03:21:05.959Z,5.00
2022-08-03T03:23:37.407Z,4.57
2022-08-03T03:26:07.074Z,4.67
2022-08-03T03:28:38.844Z,4.73
2022-08-03T03:31:08.555Z,4.67
2022-08-03T03:33:39.580Z,5.10
2022-08-03T03:36:09.498Z,4.90
2022-08-03T03:38:38.485Z,4.80
2022-08-03T03:41:07.876Z,4.87
2022-08-03T03:43:36.870Z,5.50
2022-08-03T03:46:06.452Z,4.73
2022-08-03T03:48:35.422Z,5.20
2022-08-03T03:51:06.544Z,4.87
2022-08-03T03:53:35.922Z,4.80
2022-08-03T03:56:05.342Z,4.97
2022-08-03T03:58:34.219Z,5.70
2022-08-03T04:01:03.094Z,5.03
2022-08-03T04:03:32.147Z,4.93
2022-08-03T04:06:18.434Z,4.70
2022-08-03T04:09:14.239Z,4.87
2022-08-03T04:11:48.657Z,5.47
2022-08-03T04:14:20.862Z,5.30
2022-08-03T04:16:53.140Z,4.47
2022-08-03T04:19:28.071Z,5.43
2022-08-03T04:22:01.103Z,5.20
2022-08-03T04:24:35.843Z,5.03
2022-08-03T04:27:07.728Z,4.93
2022-08-03T04:29:44.793Z,5.10
2022-08-03T04:32:18.660Z,4.73
2022-08-03T04:34:48.208Z,5.50
2022-08-03T04:37:25.643Z,5.20
2022-08-03T04:40:00.228Z,5.60
2022-08-03T04:42:33.054Z,5.77
2022-08-03T04:45:05.424Z,5.83
2022-08-03T04:47:35.873Z,5.40
2022-08-03T04:50:12.199Z,6.00
2022-08-03T04:52:43.298Z,6.97
2022-08-03T04:55:13.951Z,5.47
2022-08-03T04:57:43.006Z,5.33
2022-08-03T05:00:13.132Z,5.53
2022-08-03T05:02:42.143Z,5.40
2022-08-03T05:05:12.041Z,5.53
2022-08-03T05:07:41.923Z,5.60
2022-08-03T05:10:15.920Z,5.57
2022-08-03T05:12:46.543Z,6.03
2022-08-03T05:15:16.320Z,5.33
2022-08-03T05:17:45.158Z,6.93
2022-08-03T05:20:16.565Z,5.80
2022-08-03T05:22:49.148Z,5.47
2022-08-03T05:25:22.253Z,5.77
2022-08-03T05:27:53.696Z,5.63
2022-08-03T05:30:30.907Z,5.77
2022-08-03T05:33:04.536Z,6.13
2022-08-03T05:36:01.294Z,4.93
2022-08-03T05:38:28.841Z,5.20
2022-08-03T05:41:22.168Z,5.13
2022-08-03T05:43:53.809Z,5.20
2022-08-03T05:46:23.636Z,5.50
2022-08-03T05:48:53.097Z,5.83
2022-08-03T05:51:22.566Z,5.57
2022-08-03T05:53:52.207Z,5.77
2022-08-03T05:56:25.733Z,4.93
2022-08-03T05:58:55.262Z,5.27
2022-08-03T06:01:24.490Z,5.57
2022-08-03T06:03:54.287Z,6.10
2022-08-03T06:06:23.664Z,6.13
2022-08-03T06:08:53.050Z,7.00
2022-08-03T06:11:22.191Z,5.43
2022-08-03T06:13:52.700Z,5.10
2022-08-03T06:16:22.087Z,5.63
2022-08-03T06:18:51.383Z,5.63
2022-08-03T06:21:20.636Z,6.63
2022-08-03T06:23:54.076Z,5.27
2022-08-03T06:26:26.034Z,7.13
2022-08-03T06:28:56.881Z,4.20
2022-08-03T06:31:33.192Z,4.73
2022-08-03T06:34:32.576Z,4.47
2022-08-03T06:37:01.751Z,5.07
2022-08-03T06:39:31.373Z,4.50
2022-08-03T06:42:00.625Z,4.20
2022-08-03T06:44:30.926Z,3.50
2022-08-03T06:47:00.198Z,4.00
2022-08-03T06:49:29.443Z,3.70
2022-08-03T06:52:03.113Z,5.17
2022-08-03T06:54:34.124Z,3.60
2022-08-03T06:57:03.649Z,3.30
2022-08-03T07:00:08.342Z,3.43
2022-08-03T07:02:23.416Z,3.40
2022-08-03T07:04:52.418Z,3.03
2022-08-03T07:07:21.421Z,3.10
2022-08-03T07:09:56.907Z,3.00
2022-08-03T07:12:30.419Z,2.90
2022-08-03T07:15:03.100Z,2.70
2022-08-03T07:17:34.847Z,3.00
2022-08-03T07:20:07.111Z,2.87
2022-08-03T07:22:38.179Z,2.27
2022-08-03T07:25:08.037Z,2.50
2022-08-03T07:27:39.080Z,2.53
2022-08-03T07:30:10.763Z,2.57
2022-08-03T07:32:50.418Z,2.90
2022-08-03T07:35:24.795Z,4.10
2022-08-03T07:37:55.240Z,2.77
2022-08-03T07:40:31.518Z,2.70
2022-08-03T07:43:03.218Z,2.57
2022-08-03T07:45:33.715Z,2.20
2022-08-03T07:48:02.619Z,3.77
2022-08-03T07:50:31.853Z,2.57
2022-08-03T07:53:01.070Z,4.57
2022-08-03T07:55:30.569Z,2.40
2022-08-03T07:58:04.763Z,2.90
2022-08-03T08:00:35.492Z,2.13
2022-08-03T08:03:05.112Z,2.37
2022-08-03T08:05:34.355Z,2.10
2022-08-03T08:08:04.054Z,3.30
2022-08-03T08:10:33.794Z,1.97
2022-08-03T08:13:03.615Z,2.13
2022-08-03T08:15:34.965Z,2.40
2022-08-03T08:18:04.327Z,2.23
2022-08-03T08:20:38.131Z,1.77
2022-08-03T08:23:28.383Z,2.10
2022-08-03T08:25:58.573Z,1.93
2022-08-03T08:28:31.709Z,1.80
2022-08-03T08:31:03.593Z,2.00
2022-08-03T08:34:02.193Z,1.67
2022-08-03T08:36:23.932Z,1.60
2022-08-03T08:38:53.131Z,3.37
2022-08-03T08:41:22.091Z,1.63
2022-08-03T08:43:51.294Z,2.80
2022-08-03T08:46:23.160Z,1.70
2022-08-03T08:48:54.376Z,2.37
2022-08-03T08:51:50.981Z,2.37
2022-08-03T08:54:21.864Z,1.90
2022-08-03T08:56:52.354Z,2.80
2022-08-03T08:59:21.630Z,1.63
2022-08-03T09:01:52.299Z,4.63
2022-08-03T09:04:21.999Z,2.77
2022-08-03T09:07:17.743Z,1.60
2022-08-03T09:10:10.925Z,2.30
2022-08-03T09:12:41.967Z,1.70
2022-08-03T09:15:20.406Z,2.10
2022-08-03T09:17:52.198Z,1.40
2022-08-03T09:20:25.470Z,3.90
2022-08-03T09:22:56.660Z,1.30
2022-08-03T09:25:32.883Z,2.60
2022-08-03T09:28:10.708Z,1.67
2022-08-03T09:30:41.520Z,1.60
2022-08-03T09:33:13.357Z,1.50
2022-08-03T09:35:53.662Z,1.67
2022-08-03T09:38:26.367Z,2.63
2022-08-03T09:41:00.119Z,2.00
2022-08-03T09:43:29.887Z,2.07
2022-08-03T09:46:07.337Z,1.47
2022-08-03T09:48:38.000Z,1.60
2022-08-03T09:51:12.898Z,2.43
2022-08-03T09:53:58.844Z,1.50
2022-08-03T09:56:43.319Z,4.90
2022-08-03T09:59:13.907Z,5.53
2022-08-03T10:01:43.005Z,3.73
2022-08-03T10:04:18.040Z,1.90
2022-08-03T10:07:02.748Z,1.60
2022-08-03T10:09:31.863Z,1.40
2022-08-03T10:12:09.791Z,1.60
2022-08-03T10:14:40.548Z,1.40
2022-08-03T10:17:10.940Z,2.03
2022-08-03T10:19:42.157Z,4.60
2022-08-03T10:22:15.134Z,2.80
2022-08-03T10:24:52.526Z,2.93
2022-08-03T10:27:24.287Z,2.70
2022-08-03T10:29:57.612Z,1.40
2022-08-03T10:32:31.642Z,5.17
2022-08-03T10:35:12.380Z,1.83
2022-08-03T10:37:59.031Z,1.40
2022-08-03T10:43:22.990Z,2.17
2022-08-03T10:45:52.799Z,1.70
2022-08-03T10:48:22.567Z,6.80
2022-08-03T10:50:53.884Z,1.13
2022-08-03T10:53:36.768Z,1.67
2022-08-03T10:56:35.385Z,6.43
2022-08-03T10:59:22.934Z,1.23
2022-08-03T11:02:00.547Z,1.33
2022-08-03T11:04:30.732Z,2.20
2022-08-03T11:07:24.318Z,1.87
2022-08-03T11:09:54.805Z,1.40
2022-08-03T11:12:30.017Z,2.60
2022-08-03T11:15:02.906Z,1.40
2022-08-03T11:17:33.686Z,3.07
2022-08-03T11:20:15.497Z,1.33
2022-08-03T11:22:54.553Z,1.23
2022-08-03T11:25:53.779Z,1.37
2022-08-03T11:28:30.835Z,1.13
2022-08-03T11:31:50.284Z,2.67
2022-08-03T11:34:20.465Z,2.57
2022-08-03T11:37:30.187Z,1.87
2022-08-03T11:40:03.076Z,2.60
2022-08-03T11:42:45.126Z,2.27
2022-08-03T11:45:15.032Z,1.27
2022-08-03T11:47:50.977Z,1.40
2022-08-03T11:50:21.397Z,3.07
2022-08-03T11:52:51.513Z,1.37
2022-08-03T11:55:22.265Z,2.30
2022-08-03T11:59:01.553Z,4.77
2022-08-03T12:00:40.910Z,2.47
2022-08-03T12:03:13.672Z,1.60
2022-08-03T12:05:51.272Z,1.77
2022-08-03T12:08:32.761Z,1.30
2022-08-03T12:11:04.461Z,1.97
2022-08-03T12:14:33.107Z,1.30
2022-08-03T12:16:31.430Z,1.50
2022-08-03T12:19:03.394Z,1.50
2022-08-03T12:21:33.390Z,1.73
2022-08-03T12:24:04.334Z,2.03
2022-08-03T12:26:58.074Z,1.93
2022-08-03T12:29:28.931Z,1.67
2022-08-03T12:31:58.448Z,1.40
2022-08-03T12:34:50.625Z,1.30
2022-08-03T12:37:28.684Z,2.13
2022-08-03T12:40:09.083Z,1.67
2022-08-03T12:42:40.975Z,1.27
2022-08-03T12:45:20.088Z,2.47
2022-08-03T12:47:55.684Z,1.27
2022-08-03T12:50:28.219Z,2.37
2022-08-03T12:52:57.898Z,1.30
2022-08-03T12:55:40.083Z,1.40
2022-08-03T12:58:34.818Z,2.73
2022-08-03T13:01:09.546Z,4.60
2022-08-03T13:03:49.921Z,2.90
2022-08-03T13:06:22.924Z,2.90
2022-08-03T13:09:03.567Z,2.77
2022-08-03T13:11:55.693Z,4.00
2022-08-03T13:14:23.643Z,1.43
2022-08-03T13:16:53.003Z,2.80
2022-08-03T13:19:22.083Z,2.27
2022-08-03T13:22:03.589Z,6.93
2022-08-03T13:24:34.646Z,1.67
2022-08-03T13:28:02.255Z,1.83
2022-08-03T13:29:55.824Z,3.80
2022-08-03T13:32:25.417Z,5.43
2022-08-03T13:34:56.028Z,4.27
2022-08-03T13:37:26.851Z,2.93
2022-08-03T13:39:59.546Z,1.33
2022-08-03T13:42:31.355Z,2.97
2022-08-03T13:45:01.865Z,2.63
2022-08-03T13:47:30.900Z,3.90
2022-08-03T13:50:02.786Z,3.53
2022-08-03T13:52:36.022Z,1.40
2022-08-03T13:55:08.111Z,2.67
2022-08-03T13:58:03.732Z,1.40
2022-08-03T14:00:29.531Z,1.10
2022-08-03T14:03:12.273Z,2.43
2022-08-03T14:05:43.586Z,1.90
2022-08-03T14:08:14.216Z,3.30
2022-08-03T14:10:45.194Z,1.37
2022-08-03T14:13:17.721Z,1.67
2022-08-03T14:15:51.015Z,3.27
2022-08-03T14:18:28.773Z,2.03
2022-08-03T14:21:06.403Z,1.60
2022-08-03T14:23:38.603Z,3.67
2022-08-03T14:26:08.166Z,2.70
2022-08-03T14:28:37.683Z,3.13
2022-08-03T14:31:08.481Z,1.40
2022-08-03T14:33:56.069Z,1.50
2022-08-03T14:36:25.343Z,4.30
2022-08-03T14:39:00.822Z,1.93
2022-08-03T14:41:30.450Z,2.67
2022-08-03T14:44:01.143Z,1.23
2022-08-03T14:46:32.642Z,1.57
2022-08-03T14:50:34.226Z,2.20
2022-08-03T14:51:51.554Z,3.33
2022-08-03T14:54:24.549Z,5.57
2022-08-03T14:56:53.873Z,4.60
2022-08-03T14:59:22.956Z,3.73
2022-08-03T15:02:02.138Z,5.03
2022-08-03T15:04:33.135Z,2.53
2022-08-03T15:07:02.402Z,5.50
2022-08-03T15:09:33.271Z,1.73
2022-08-03T15:12:02.437Z,6.97
2022-08-03T15:14:38.668Z,2.83
2022-08-03T15:17:08.186Z,3.80
2022-08-03T15:20:02.842Z,1.80
2022-08-03T15:22:34.858Z,2.07
2022-08-03T15:26:03.134Z,1.20
2022-08-03T15:28:03.807Z,3.40
2022-08-03T15:30:36.858Z,3.23
2022-08-03T15:33:06.645Z,5.67
2022-08-03T15:35:36.178Z,3.70
2022-08-03T15:38:09.309Z,4.80
2022-08-03T15:40:40.098Z,2.57
2022-08-03T15:43:09.299Z,3.43
2022-08-03T15:45:40.594Z,5.63
2022-08-03T15:48:11.395Z,2.63
2022-08-03T15:50:40.819Z,1.43
2022-08-03T15:53:10.082Z,1.67
2022-08-03T15:55:40.507Z,3.70
2022-08-03T15:59:03.387Z,4.77
2022-08-03T16:00:59.842Z,1.97
2022-08-03T16:03:34.245Z,2.90
2022-08-03T16:06:03.983Z,2.27
2022-08-03T16:08:33.635Z,3.60
2022-08-03T16:11:04.233Z,4.70
2022-08-03T16:14:13.375Z,3.07
2022-08-03T16:16:22.491Z,2.00
2022-08-03T16:18:51.713Z,2.50
2022-08-03T16:21:21.747Z,3.00
2022-08-03T16:23:53.706Z,2.97
2022-08-03T16:26:24.476Z,3.10
2022-08-03T16:28:57.052Z,3.53
2022-08-03T16:31:27.266Z,3.93
2022-08-03T16:33:56.544Z,7.93
2022-08-03T16:36:28.072Z,2.47
2022-08-03T16:39:04.047Z,5.13
2022-08-03T16:41:53.873Z,4.97
2022-08-03T16:44:26.177Z,3.40
2022-08-03T16:46:56.447Z,3.30
2022-08-03T16:49:56.065Z,2.70
2022-08-03T16:52:16.627Z,5.63
2022-08-03T16:54:52.495Z,4.37
2022-08-03T16:57:56.092Z,9.60
2022-08-03T17:00:33.734Z,3.77
2022-08-03T17:03:18.954Z,2.00
2022-08-03T17:05:51.038Z,3.17
2022-08-03T17:08:26.844Z,3.97
2022-08-03T17:10:57.045Z,2.03
2022-08-03T17:13:27.599Z,1.83
2022-08-03T17:16:11.946Z,2.07
2022-08-03T17:18:47.909Z,2.57
2022-08-03T17:21:23.710Z,2.23
2022-08-03T17:23:59.887Z,3.90
2022-08-03T17:26:30.498Z,2.50
2022-08-03T17:29:12.901Z,4.00
2022-08-03T17:31:49.711Z,2.20
2022-08-03T17:34:19.495Z,3.30
2022-08-03T17:37:05.889Z,1.87
2022-08-03T17:39:57.582Z,1.20
2022-08-03T17:42:30.008Z,4.47
2022-08-03T17:45:03.558Z,3.47
2022-08-03T17:47:41.285Z,3.57
2022-08-03T17:50:24.192Z,1.80
2022-08-03T17:53:07.263Z,4.20
2022-08-03T17:55:57.715Z,1.73
2022-08-03T17:58:43.651Z,1.93
2022-08-03T18:02:00.050Z,2.33
2022-08-03T18:04:29.803Z,3.70
2022-08-03T18:07:11.797Z,2.90
2022-08-03T18:10:06.011Z,3.50
2022-08-03T18:12:51.739Z,1.67
2022-08-03T18:15:28.706Z,3.83
2022-08-03T18:18:10.260Z,3.27
2022-08-03T18:20:42.660Z,2.93
2022-08-03T18:23:25.479Z,8.30
2022-08-03T18:26:06.907Z,4.00
2022-08-03T18:28:38.344Z,8.07
2022-08-03T18:31:10.073Z,7.27
2022-08-03T18:34:32.486Z,8.73
2022-08-03T18:36:34.342Z,6.07
2022-08-03T18:39:04.055Z,8.77
2022-08-03T18:41:35.392Z,19.67
2022-08-03T18:44:09.616Z,19.80
2022-08-03T18:47:16.723Z,12.77
2022-08-03T18:49:58.628Z,13.30
2022-08-03T18:52:31.951Z,8.10
2022-08-03T18:55:20.028Z,5.70
2022-08-03T18:57:56.505Z,2.67
2022-08-03T19:00:42.534Z,4.83
2022-08-03T19:03:20.339Z,5.33
2022-08-03T19:06:05.906Z,3.27
2022-08-03T19:08:47.785Z,3.03
2022-08-03T19:11:28.055Z,2.00
2022-08-03T19:14:00.287Z,2.27
2022-08-03T19:16:38.790Z,3.07
2022-08-03T19:19:11.102Z,2.70
2022-08-03T19:21:46.117Z,2.40
2022-08-03T19:24:22.205Z,2.30
2022-08-03T19:26:56.788Z,5.17
2022-08-03T19:29:57.800Z,6.37
2022-08-03T19:32:19.129Z,3.23
2022-08-03T19:34:51.733Z,2.80
2022-08-03T19:37:23.043Z,4.90
2022-08-03T19:39:56.492Z,2.80
2022-08-03T19:42:31.667Z,4.67
2022-08-03T19:45:14.230Z,2.57
2022-08-03T19:47:48.638Z,2.73
2022-08-03T19:50:20.779Z,3.57
2022-08-03T19:52:52.776Z,3.53
2022-08-03T19:55:22.035Z,2.80
2022-08-03T19:57:54.723Z,3.33
2022-08-03T20:00:32.682Z,5.23
2022-08-03T20:03:06.995Z,7.40
2022-08-03T20:05:52.024Z,2.67
2022-08-03T20:08:23.512Z,4.33
2022-08-03T20:10:53.516Z,3.43
2022-08-03T20:13:23.242Z,4.27
2022-08-03T20:15:57.555Z,2.73
2022-08-03T20:18:26.413Z,5.23
2022-08-03T20:20:57.840Z,2.57
2022-08-03T20:23:37.210Z,2.50
2022-08-03T20:26:09.396Z,3.10
2022-08-03T20:28:49.825Z,2.50
2022-08-03T20:34:09.855Z,4.13
2022-08-03T20:36:39.464Z,4.67
2022-08-03T20:39:10.386Z,4.63
2022-08-03T20:41:39.579Z,2.63
2022-08-03T20:44:08.591Z,6.13
2022-08-03T20:46:50.167Z,3.50
2022-08-03T20:49:25.648Z,2.90
2022-08-03T20:51:55.461Z,3.07
2022-08-03T20:54:29.451Z,2.90
2022-08-03T20:57:03.627Z,3.00
2022-08-03T20:59:50.661Z,3.23
2022-08-03T21:02:30.458Z,4.40
2022-08-03T21:08:06.507Z,4.63
2022-08-03T21:10:42.140Z,2.90
2022-08-03T21:13:07.969Z,4.37
2022-08-03T21:13:12.153Z,3.60
2022-08-03T21:13:18.937Z,3.00
2022-08-03T21:15:59.824Z,2.53
2022-08-03T21:18:46.029Z,6.73
2022-08-03T21:21:17.054Z,2.80
2022-08-03T21:23:49.844Z,6.80
2022-08-03T21:26:22.653Z,3.20
2022-08-03T21:28:53.765Z,5.93
2022-08-03T21:31:26.594Z,4.63
2022-08-03T21:33:57.891Z,4.33
2022-08-03T21:36:27.943Z,3.10
2022-08-03T21:38:58.183Z,4.13
2022-08-03T21:41:31.002Z,3.83
2022-08-03T21:44:00.775Z,4.90
2022-08-03T21:46:35.030Z,3.40
2022-08-03T21:50:04.479Z,3.17
2022-08-03T21:51:57.822Z,3.43
2022-08-03T21:54:35.497Z,2.97
2022-08-03T21:57:10.259Z,3.30
2022-08-03T21:59:44.810Z,3.33
2022-08-03T22:02:24.108Z,8.07
2022-08-03T22:04:57.223Z,3.33
2022-08-03T22:07:28.186Z,3.20
2022-08-03T22:09:57.834Z,3.77
2022-08-03T22:12:29.848Z,3.37
2022-08-03T22:15:02.312Z,3.27
2022-08-03T22:17:56.056Z,2.90
2022-08-03T22:20:25.483Z,3.00
2022-08-03T22:23:01.020Z,3.23
2022-08-03T22:25:33.314Z,3.73
2022-08-03T22:28:07.541Z,3.03
2022-08-03T22:30:37.311Z,3.10
2022-08-03T22:33:11.103Z,2.90
2022-08-03T22:35:47.332Z,4.73
2022-08-03T22:38:18.853Z,5.63
2022-08-03T22:40:50.712Z,2.63
2022-08-03T22:43:23.684Z,3.87
2022-08-03T22:46:09.320Z,6.60
2022-08-03T22:48:41.928Z,10.27
2022-08-03T22:51:11.474Z,3.00
2022-08-03T22:53:41.665Z,3.33
2022-08-03T22:56:11.806Z,3.00
2022-08-03T22:58:42.130Z,10.10
2022-08-03T23:01:12.972Z,4.47
2022-08-03T23:03:59.689Z,3.17
2022-08-03T23:06:34.635Z,3.20
2022-08-03T23:09:07.217Z,3.43
2022-08-03T23:11:43.018Z,3.30
2022-08-03T23:14:19.263Z,5.03
2022-08-03T23:16:50.815Z,3.50
2022-08-03T23:19:25.164Z,3.43
2022-08-03T23:22:03.001Z,3.73
2022-08-03T23:24:36.818Z,3.37
2022-08-03T23:27:07.134Z,3.80
2022-08-03T23:29:38.995Z,3.07
2022-08-03T23:32:09.083Z,3.73
2022-08-03T23:34:58.526Z,3.43
2022-08-03T23:37:28.385Z,3.97
2022-08-03T23:39:59.240Z,3.37
2022-08-03T23:42:29.252Z,3.50
2022-08-03T23:45:06.057Z,3.27
2022-08-03T23:47:46.840Z,3.10
2022-08-03T23:50:16.759Z,3.70
2022-08-03T23:53:01.282Z,3.53
2022-08-03T23:55:52.666Z,3.33
2022-08-03T23:58:33.946Z,3.40
